sensor_id;sensor_type;location;lat;lon;timestamp;P1;durP1;ratioP1;P2;durP2;ratioP2
71869;SDS011;59739;47.696;11.746;2023-05-10T00:01:15;0.10;;;0.10;;
71869;SDS011;59739;47.696;11.746;2023-05-10T00:03:41;0.10;;;0.10;;
71869;SDS011;59739;47.696;11.746;2023-05-10T00:06:07;0.17;;;0.13;;
71869;SDS011;59739;47.696;11.746;2023-05-10T00:08:33;0.10;;;0.10;;
71869;SDS011;59739;47.696;11.746;2023-05-10T00:10:59;0.20;;;0.20;;
71869;SDS011;59739;47.696;11.746;2023-05-10T00:13:25;0.20;;;0.20;;
71869;SDS011;59739;47.696;11.746;2023-05-10T00:15:51;0.30;;;0.20;;
71869;SDS011;59739;47.696;11.746;2023-05-10T00:18:17;0.28;;;0.20;;
71869;SDS011;59739;47.696;11.746;2023-05-10T00:20:44;0.93;;;0.20;;
71869;SDS011;59739;47.696;11.746;2023-05-10T00:23:11;1.40;;;0.20;;
71869;SDS011;59739;47.696;11.746;2023-05-10T00:25:37;1.58;;;0.40;;
71869;SDS011;59739;47.696;11.746;2023-05-10T00:28:03;0.73;;;0.30;;
71869;SDS011;59739;47.696;11.746;2023-05-10T00:30:29;0.43;;;0.20;;
71869;SDS011;59739;47.696;11.746;2023-05-10T00:32:55;0.22;;;0.22;;
71869;SDS011;59739;47.696;11.746;2023-05-10T00:35:21;0.65;;;0.30;;
71869;SDS011;59739;47.696;11.746;2023-05-10T00:37:47;0.20;;;0.20;;
71869;SDS011;59739;47.696;11.746;2023-05-10T00:40:13;0.17;;;0.15;;
71869;SDS011;59739;47.696;11.746;2023-05-10T00:42:42;0.35;;;0.17;;
71869;SDS011;59739;47.696;11.746;2023-05-10T00:45:08;0.10;;;0.10;;
71869;SDS011;59739;47.696;11.746;2023-05-10T00:47:34;1.10;;;0.20;;
71869;SDS011;59739;47.696;11.746;2023-05-10T00:50:01;0.40;;;0.30;;
71869;SDS011;59739;47.696;11.746;2023-05-10T00:52:28;0.20;;;0.10;;
71869;SDS011;59739;47.696;11.746;2023-05-10T00:54:54;0.43;;;0.40;;
71869;SDS011;59739;47.696;11.746;2023-05-10T00:57:21;0.10;;;0.10;;
71869;SDS011;59739;47.696;11.746;2023-05-10T00:59:47;0.85;;;0.30;;
71869;SDS011;59739;47.696;11.746;2023-05-10T01:02:13;1.15;;;0.25;;
71869;SDS011;59739;47.696;11.746;2023-05-10T01:04:40;0.30;;;0.20;;
71869;SDS011;59739;47.696;11.746;2023-05-10T01:07:06;0.20;;;0.15;;
71869;SDS011;59739;47.696;11.746;2023-05-10T01:09:32;1.30;;;0.20;;
71869;SDS011;59739;47.696;11.746;2023-05-10T01:11:59;1.15;;;0.20;;
71869;SDS011;59739;47.696;11.746;2023-05-10T01:14:28;0.50;;;0.20;;
71869;SDS011;59739;47.696;11.746;2023-05-10T01:16:54;1.30;;;0.20;;
71869;SDS011;59739;47.696;11.746;2023-05-10T01:31:02;0.15;;;0.15;;
71869;SDS011;59739;47.696;11.746;2023-05-10T01:36:43;0.43;;;0.30;;
71869;SDS011;59739;47.696;11.746;2023-05-10T01:39:45;0.95;;;0.20;;
71869;SDS011;59739;47.696;11.746;2023-05-10T01:42:28;0.32;;;0.30;;
71869;SDS011;59739;47.696;11.746;2023-05-10T01:45:07;0.50;;;0.28;;
71869;SDS011;59739;47.696;11.746;2023-05-10T01:47:53;2.15;;;0.32;;
71869;SDS011;59739;47.696;11.746;2023-05-10T01:50:31;0.30;;;0.20;;
71869;SDS011;59739;47.696;11.746;2023-05-10T01:52:59;0.45;;;0.20;;
71869;SDS011;59739;47.696;11.746;2023-05-10T01:55:28;2.85;;;0.40;;
71869;SDS011;59739;47.696;11.746;2023-05-10T01:58:40;0.40;;;0.20;;
71869;SDS011;59739;47.696;11.746;2023-05-10T02:00:52;0.20;;;0.10;;
71869;SDS011;59739;47.696;11.746;2023-05-10T02:03:20;0.85;;;0.20;;
71869;SDS011;59739;47.696;11.746;2023-05-10T02:05:48;0.30;;;0.20;;
71869;SDS011;59739;47.696;11.746;2023-05-10T02:08:16;0.20;;;0.20;;
71869;SDS011;59739;47.696;11.746;2023-05-10T02:10:45;2.47;;;0.28;;
71869;SDS011;59739;47.696;11.746;2023-05-10T02:13:14;0.95;;;0.50;;
71869;SDS011;59739;47.696;11.746;2023-05-10T02:15:42;0.65;;;0.17;;
71869;SDS011;59739;47.696;11.746;2023-05-10T02:18:12;1.08;;;0.22;;
71869;SDS011;59739;47.696;11.746;2023-05-10T02:20:40;0.20;;;0.20;;
71869;SDS011;59739;47.696;11.746;2023-05-10T02:23:08;1.23;;;0.20;;
71869;SDS011;59739;47.696;11.746;2023-05-10T02:25:36;0.93;;;0.30;;
71869;SDS011;59739;47.696;11.746;2023-05-10T02:28:04;0.20;;;0.20;;
71869;SDS011;59739;47.696;11.746;2023-05-10T02:30:32;0.35;;;0.30;;
71869;SDS011;59739;47.696;11.746;2023-05-10T02:32:59;0.10;;;0.10;;
71869;SDS011;59739;47.696;11.746;2023-05-10T02:35:28;1.08;;;0.17;;
71869;SDS011;59739;47.696;11.746;2023-05-10T02:37:55;0.00;;;0.00;;
71869;SDS011;59739;47.696;11.746;2023-05-10T02:40:23;0.50;;;0.20;;
71869;SDS011;59739;47.696;11.746;2023-05-10T02:42:50;1.38;;;0.35;;
71869;SDS011;59739;47.696;11.746;2023-05-10T02:45:20;0.55;;;0.20;;
71869;SDS011;59739;47.696;11.746;2023-05-10T02:47:53;0.32;;;0.20;;
71869;SDS011;59739;47.696;11.746;2023-05-10T02:50:19;0.08;;;0.08;;
71869;SDS011;59739;47.696;11.746;2023-05-10T02:52:47;1.30;;;0.10;;
71869;SDS011;59739;47.696;11.746;2023-05-10T02:55:17;0.60;;;0.25;;
71869;SDS011;59739;47.696;11.746;2023-05-10T02:58:21;1.15;;;0.30;;
71869;SDS011;59739;47.696;11.746;2023-05-10T03:00:39;0.43;;;0.20;;
71869;SDS011;59739;47.696;11.746;2023-05-10T03:03:06;1.00;;;0.20;;
71869;SDS011;59739;47.696;11.746;2023-05-10T03:05:32;0.40;;;0.20;;
71869;SDS011;59739;47.696;11.746;2023-05-10T03:08:01;0.10;;;0.10;;
71869;SDS011;59739;47.696;11.746;2023-05-10T03:10:29;0.82;;;0.30;;
71869;SDS011;59739;47.696;11.746;2023-05-10T03:13:20;0.65;;;0.20;;
71869;SDS011;59739;47.696;11.746;2023-05-10T03:19:02;1.08;;;0.20;;
71869;SDS011;59739;47.696;11.746;2023-05-10T03:21:38;0.25;;;0.20;;
71869;SDS011;59739;47.696;11.746;2023-05-10T03:24:08;0.93;;;0.10;;
71869;SDS011;59739;47.696;11.746;2023-05-10T03:26:37;0.22;;;0.10;;
71869;SDS011;59739;47.696;11.746;2023-05-10T03:29:12;0.35;;;0.13;;
71869;SDS011;59739;47.696;11.746;2023-05-10T03:31:40;0.63;;;0.10;;
71869;SDS011;59739;47.696;11.746;2023-05-10T03:34:06;1.30;;;0.10;;
71869;SDS011;59739;47.696;11.746;2023-05-10T03:36:32;1.00;;;0.20;;
71869;SDS011;59739;47.696;11.746;2023-05-10T03:38:58;0.40;;;0.20;;
71869;SDS011;59739;47.696;11.746;2023-05-10T03:41:25;1.48;;;0.30;;
71869;SDS011;59739;47.696;11.746;2023-05-10T03:43:52;0.20;;;0.10;;
71869;SDS011;59739;47.696;11.746;2023-05-10T03:46:18;1.27;;;0.20;;
71869;SDS011;59739;47.696;11.746;2023-05-10T03:48:44;1.08;;;0.30;;
71869;SDS011;59739;47.696;11.746;2023-05-10T03:51:10;0.63;;;0.20;;
71869;SDS011;59739;47.696;11.746;2023-05-10T03:53:37;2.20;;;0.20;;
71869;SDS011;59739;47.696;11.746;2023-05-10T03:56:03;0.82;;;0.20;;
71869;SDS011;59739;47.696;11.746;2023-05-10T03:58:29;0.93;;;0.10;;
71869;SDS011;59739;47.696;11.746;2023-05-10T04:00:55;0.10;;;0.10;;
71869;SDS011;59739;47.696;11.746;2023-05-10T04:03:21;0.55;;;0.20;;
71869;SDS011;59739;47.696;11.746;2023-05-10T04:05:47;0.95;;;0.50;;
71869;SDS011;59739;47.696;11.746;2023-05-10T04:08:13;0.88;;;0.40;;
71869;SDS011;59739;47.696;11.746;2023-05-10T04:10:41;0.88;;;0.50;;
71869;SDS011;59739;47.696;11.746;2023-05-10T04:13:07;0.25;;;0.25;;
71869;SDS011;59739;47.696;11.746;2023-05-10T04:15:33;1.70;;;0.40;;
71869;SDS011;59739;47.696;11.746;2023-05-10T04:18:00;1.65;;;0.40;;
71869;SDS011;59739;47.696;11.746;2023-05-10T04:20:26;0.63;;;0.40;;
71869;SDS011;59739;47.696;11.746;2023-05-10T04:22:52;0.75;;;0.30;;
71869;SDS011;59739;47.696;11.746;2023-05-10T04:25:18;1.50;;;0.30;;
71869;SDS011;59739;47.696;11.746;2023-05-10T04:27:44;0.55;;;0.30;;
71869;SDS011;59739;47.696;11.746;2023-05-10T04:30:10;0.45;;;0.20;;
71869;SDS011;59739;47.696;11.746;2023-05-10T04:32:37;1.52;;;0.40;;
71869;SDS011;59739;47.696;11.746;2023-05-10T04:35:03;0.90;;;0.20;;
71869;SDS011;59739;47.696;11.746;2023-05-10T04:37:29;0.65;;;0.30;;
71869;SDS011;59739;47.696;11.746;2023-05-10T04:39:55;0.52;;;0.22;;
71869;SDS011;59739;47.696;11.746;2023-05-10T04:42:21;0.28;;;0.13;;
71869;SDS011;59739;47.696;11.746;2023-05-10T04:44:47;0.73;;;0.20;;
71869;SDS011;59739;47.696;11.746;2023-05-10T04:47:13;0.30;;;0.30;;
71869;SDS011;59739;47.696;11.746;2023-05-10T04:49:41;0.60;;;0.30;;
71869;SDS011;59739;47.696;11.746;2023-05-10T04:52:07;1.50;;;0.32;;
71869;SDS011;59739;47.696;11.746;2023-05-10T04:54:33;2.72;;;0.40;;
71869;SDS011;59739;47.696;11.746;2023-05-10T04:56:59;0.65;;;0.40;;
71869;SDS011;59739;47.696;11.746;2023-05-10T04:59:25;1.48;;;0.40;;
71869;SDS011;59739;47.696;11.746;2023-05-10T05:01:51;0.98;;;0.40;;
71869;SDS011;59739;47.696;11.746;2023-05-10T05:04:17;0.47;;;0.30;;
71869;SDS011;59739;47.696;11.746;2023-05-10T05:06:43;0.43;;;0.32;;
71869;SDS011;59739;47.696;11.746;2023-05-10T05:09:09;1.15;;;0.32;;
71869;SDS011;59739;47.696;11.746;2023-05-10T05:11:35;0.55;;;0.28;;
71869;SDS011;59739;47.696;11.746;2023-05-10T05:14:01;0.98;;;0.25;;
71869;SDS011;59739;47.696;11.746;2023-05-10T05:16:29;0.55;;;0.30;;
71869;SDS011;59739;47.696;11.746;2023-05-10T05:18:57;0.20;;;0.20;;
71869;SDS011;59739;47.696;11.746;2023-05-10T05:21:23;1.85;;;0.30;;
71869;SDS011;59739;47.696;11.746;2023-05-10T05:23:50;0.38;;;0.30;;
71869;SDS011;59739;47.696;11.746;2023-05-10T05:26:16;1.70;;;0.22;;
71869;SDS011;59739;47.696;11.746;2023-05-10T05:28:41;0.80;;;0.20;;
71869;SDS011;59739;47.696;11.746;2023-05-10T05:31:08;1.35;;;0.20;;
71869;SDS011;59739;47.696;11.746;2023-05-10T05:33:34;0.45;;;0.30;;
71869;SDS011;59739;47.696;11.746;2023-05-10T05:36:00;1.77;;;0.60;;
71869;SDS011;59739;47.696;11.746;2023-05-10T05:38:28;3.80;;;0.85;;
71869;SDS011;59739;47.696;11.746;2023-05-10T05:40:54;1.83;;;0.55;;
71869;SDS011;59739;47.696;11.746;2023-05-10T05:43:20;1.10;;;0.40;;
71869;SDS011;59739;47.696;11.746;2023-05-10T05:45:46;0.55;;;0.20;;
71869;SDS011;59739;47.696;11.746;2023-05-10T05:48:12;0.32;;;0.20;;
71869;SDS011;59739;47.696;11.746;2023-05-10T05:50:38;0.75;;;0.20;;
71869;SDS011;59739;47.696;11.746;2023-05-10T05:53:04;0.35;;;0.10;;
71869;SDS011;59739;47.696;11.746;2023-05-10T05:55:30;0.40;;;0.20;;
71869;SDS011;59739;47.696;11.746;2023-05-10T05:57:57;0.77;;;0.10;;
71869;SDS011;59739;47.696;11.746;2023-05-10T06:00:23;0.20;;;0.10;;
71869;SDS011;59739;47.696;11.746;2023-05-10T06:02:49;0.57;;;0.10;;
71869;SDS011;59739;47.696;11.746;2023-05-10T06:05:15;0.17;;;0.17;;
71869;SDS011;59739;47.696;11.746;2023-05-10T06:07:41;0.28;;;0.10;;
71869;SDS011;59739;47.696;11.746;2023-05-10T06:10:08;0.63;;;0.10;;
71869;SDS011;59739;47.696;11.746;2023-05-10T06:12:34;1.05;;;0.10;;
71869;SDS011;59739;47.696;11.746;2023-05-10T06:15:01;0.20;;;0.10;;
71869;SDS011;59739;47.696;11.746;2023-05-10T06:17:28;0.73;;;0.05;;
71869;SDS011;59739;47.696;11.746;2023-05-10T06:19:54;0.45;;;0.20;;
71869;SDS011;59739;47.696;11.746;2023-05-10T06:22:20;0.22;;;0.10;;
71869;SDS011;59739;47.696;11.746;2023-05-10T06:24:47;0.10;;;0.10;;
71869;SDS011;59739;47.696;11.746;2023-05-10T06:27:14;1.15;;;0.10;;
71869;SDS011;59739;47.696;11.746;2023-05-10T06:29:40;0.13;;;0.10;;
71869;SDS011;59739;47.696;11.746;2023-05-10T06:32:06;0.10;;;0.10;;
71869;SDS011;59739;47.696;11.746;2023-05-10T06:34:32;0.40;;;0.10;;
71869;SDS011;59739;47.696;11.746;2023-05-10T06:36:59;0.75;;;0.20;;
71869;SDS011;59739;47.696;11.746;2023-05-10T06:39:25;0.60;;;0.20;;
71869;SDS011;59739;47.696;11.746;2023-05-10T06:41:51;1.02;;;0.10;;
71869;SDS011;59739;47.696;11.746;2023-05-10T06:44:18;0.85;;;0.10;;
71869;SDS011;59739;47.696;11.746;2023-05-10T06:46:44;0.60;;;0.20;;
71869;SDS011;59739;47.696;11.746;2023-05-10T06:49:10;0.13;;;0.10;;
71869;SDS011;59739;47.696;11.746;2023-05-10T06:51:37;0.13;;;0.10;;
71869;SDS011;59739;47.696;11.746;2023-05-10T06:54:03;0.40;;;0.20;;
71869;SDS011;59739;47.696;11.746;2023-05-10T06:56:29;0.75;;;0.40;;
71869;SDS011;59739;47.696;11.746;2023-05-10T06:58:55;0.82;;;0.20;;
71869;SDS011;59739;47.696;11.746;2023-05-10T07:01:28;1.25;;;0.30;;
71869;SDS011;59739;47.696;11.746;2023-05-10T07:03:55;0.30;;;0.30;;
71869;SDS011;59739;47.696;11.746;2023-05-10T07:06:21;0.30;;;0.10;;
71869;SDS011;59739;47.696;11.746;2023-05-10T07:08:50;1.83;;;0.40;;
71869;SDS011;59739;47.696;11.746;2023-05-10T07:11:17;0.38;;;0.20;;
71869;SDS011;59739;47.696;11.746;2023-05-10T07:13:43;0.73;;;0.30;;
71869;SDS011;59739;47.696;11.746;2023-05-10T07:16:11;0.30;;;0.30;;
71869;SDS011;59739;47.696;11.746;2023-05-10T07:18:37;0.40;;;0.30;;
71869;SDS011;59739;47.696;11.746;2023-05-10T07:21:03;0.75;;;0.40;;
71869;SDS011;59739;47.696;11.746;2023-05-10T07:23:29;0.40;;;0.20;;
71869;SDS011;59739;47.696;11.746;2023-05-10T07:25:55;1.15;;;0.30;;
71869;SDS011;59739;47.696;11.746;2023-05-10T07:28:22;0.77;;;0.40;;
71869;SDS011;59739;47.696;11.746;2023-05-10T07:30:51;0.40;;;0.40;;
71869;SDS011;59739;47.696;11.746;2023-05-10T07:33:17;0.73;;;0.43;;
71869;SDS011;59739;47.696;11.746;2023-05-10T07:35:43;1.80;;;0.40;;
71869;SDS011;59739;47.696;11.746;2023-05-10T07:38:09;1.33;;;0.38;;
71869;SDS011;59739;47.696;11.746;2023-05-10T07:40:36;0.40;;;0.30;;
71869;SDS011;59739;47.696;11.746;2023-05-10T07:43:03;2.58;;;0.35;;
71869;SDS011;59739;47.696;11.746;2023-05-10T07:45:29;0.73;;;0.45;;
71869;SDS011;59739;47.696;11.746;2023-05-10T07:47:55;0.43;;;0.43;;
71869;SDS011;59739;47.696;11.746;2023-05-10T07:50:21;0.30;;;0.25;;
71869;SDS011;59739;47.696;11.746;2023-05-10T07:52:47;1.33;;;0.50;;
71869;SDS011;59739;47.696;11.746;2023-05-10T07:55:13;0.30;;;0.30;;
71869;SDS011;59739;47.696;11.746;2023-05-10T07:57:39;1.48;;;0.50;;
71869;SDS011;59739;47.696;11.746;2023-05-10T08:00:06;0.82;;;0.40;;
71869;SDS011;59739;47.696;11.746;2023-05-10T08:02:39;0.93;;;0.50;;
71869;SDS011;59739;47.696;11.746;2023-05-10T08:05:06;0.30;;;0.30;;
71869;SDS011;59739;47.696;11.746;2023-05-10T08:07:33;1.33;;;0.50;;
71869;SDS011;59739;47.696;11.746;2023-05-10T08:09:59;1.52;;;0.50;;
71869;SDS011;59739;47.696;11.746;2023-05-10T08:12:25;0.85;;;0.45;;
71869;SDS011;59739;47.696;11.746;2023-05-10T08:14:51;1.73;;;0.50;;
71869;SDS011;59739;47.696;11.746;2023-05-10T08:17:17;0.77;;;0.50;;
71869;SDS011;59739;47.696;11.746;2023-05-10T08:19:43;0.63;;;0.45;;
71869;SDS011;59739;47.696;11.746;2023-05-10T08:22:09;0.50;;;0.50;;
71869;SDS011;59739;47.696;11.746;2023-05-10T08:24:35;3.13;;;0.50;;
71869;SDS011;59739;47.696;11.746;2023-05-10T08:27:06;1.67;;;0.70;;
71869;SDS011;59739;47.696;11.746;2023-05-10T08:29:37;0.70;;;0.45;;
71869;SDS011;59739;47.696;11.746;2023-05-10T08:32:03;1.05;;;0.55;;
71869;SDS011;59739;47.696;11.746;2023-05-10T08:34:29;0.40;;;0.40;;
71869;SDS011;59739;47.696;11.746;2023-05-10T08:36:56;0.95;;;0.40;;
71869;SDS011;59739;47.696;11.746;2023-05-10T08:39:22;1.23;;;0.40;;
71869;SDS011;59739;47.696;11.746;2023-05-10T08:41:48;0.30;;;0.30;;
71869;SDS011;59739;47.696;11.746;2023-05-10T08:44:18;3.22;;;0.57;;
71869;SDS011;59739;47.696;11.746;2023-05-10T08:46:45;1.55;;;0.43;;
71869;SDS011;59739;47.696;11.746;2023-05-10T08:49:16;0.38;;;0.38;;
71869;SDS011;59739;47.696;11.746;2023-05-10T08:51:52;0.60;;;0.40;;
71869;SDS011;59739;47.696;11.746;2023-05-10T08:54:21;0.30;;;0.30;;
71869;SDS011;59739;47.696;11.746;2023-05-10T08:56:47;0.45;;;0.40;;
71869;SDS011;59739;47.696;11.746;2023-05-10T08:59:14;0.30;;;0.30;;
71869;SDS011;59739;47.696;11.746;2023-05-10T09:01:41;0.60;;;0.40;;
71869;SDS011;59739;47.696;11.746;2023-05-10T09:04:09;0.95;;;0.55;;
71869;SDS011;59739;47.696;11.746;2023-05-10T09:06:37;1.50;;;0.60;;
71869;SDS011;59739;47.696;11.746;2023-05-10T09:09:03;0.50;;;0.50;;
71869;SDS011;59739;47.696;11.746;2023-05-10T09:11:29;1.20;;;0.60;;
71869;SDS011;59739;47.696;11.746;2023-05-10T09:14:00;0.52;;;0.50;;
71869;SDS011;59739;47.696;11.746;2023-05-10T09:16:27;1.20;;;0.60;;
71869;SDS011;59739;47.696;11.746;2023-05-10T09:18:53;0.70;;;0.50;;
71869;SDS011;59739;47.696;11.746;2023-05-10T09:21:19;0.68;;;0.63;;
71869;SDS011;59739;47.696;11.746;2023-05-10T09:23:45;0.50;;;0.50;;
71869;SDS011;59739;47.696;11.746;2023-05-10T09:26:12;1.05;;;0.40;;
71869;SDS011;59739;47.696;11.746;2023-05-10T09:29:00;0.80;;;0.52;;
71869;SDS011;59739;47.696;11.746;2023-05-10T09:31:48;0.77;;;0.40;;
71869;SDS011;59739;47.696;11.746;2023-05-10T09:34:34;1.30;;;0.40;;
71869;SDS011;59739;47.696;11.746;2023-05-10T09:37:04;1.13;;;0.22;;
71869;SDS011;59739;47.696;11.746;2023-05-10T09:39:31;0.25;;;0.20;;
71869;SDS011;59739;47.696;11.746;2023-05-10T09:42:06;0.20;;;0.20;;
71869;SDS011;59739;47.696;11.746;2023-05-10T09:44:34;0.20;;;0.20;;
71869;SDS011;59739;47.696;11.746;2023-05-10T09:47:01;1.52;;;0.22;;
71869;SDS011;59739;47.696;11.746;2023-05-10T09:49:31;0.30;;;0.30;;
71869;SDS011;59739;47.696;11.746;2023-05-10T09:52:07;0.50;;;0.30;;
71869;SDS011;59739;47.696;11.746;2023-05-10T09:54:34;0.50;;;0.30;;
71869;SDS011;59739;47.696;11.746;2023-05-10T09:57:01;0.95;;;0.20;;
71869;SDS011;59739;47.696;11.746;2023-05-10T09:59:28;0.30;;;0.30;;
71869;SDS011;59739;47.696;11.746;2023-05-10T10:01:59;0.15;;;0.15;;
71869;SDS011;59739;47.696;11.746;2023-05-10T10:04:26;0.95;;;0.20;;
71869;SDS011;59739;47.696;11.746;2023-05-10T10:07:00;0.22;;;0.22;;
71869;SDS011;59739;47.696;11.746;2023-05-10T10:09:29;0.20;;;0.20;;
71869;SDS011;59739;47.696;11.746;2023-05-10T10:11:55;0.50;;;0.30;;
71869;SDS011;59739;47.696;11.746;2023-05-10T10:14:22;0.30;;;0.30;;
71869;SDS011;59739;47.696;11.746;2023-05-10T10:16:50;1.13;;;0.20;;
71869;SDS011;59739;47.696;11.746;2023-05-10T10:19:16;0.32;;;0.30;;
71869;SDS011;59739;47.696;11.746;2023-05-10T10:21:46;0.30;;;0.20;;
71869;SDS011;59739;47.696;11.746;2023-05-10T10:24:14;0.20;;;0.20;;
71869;SDS011;59739;47.696;11.746;2023-05-10T10:26:40;0.32;;;0.25;;
71869;SDS011;59739;47.696;11.746;2023-05-10T10:29:25;0.20;;;0.20;;
71869;SDS011;59739;47.696;11.746;2023-05-10T10:35:11;0.20;;;0.20;;
71869;SDS011;59739;47.696;11.746;2023-05-10T10:37:42;0.85;;;0.22;;
71869;SDS011;59739;47.696;11.746;2023-05-10T10:40:22;1.10;;;0.30;;
71869;SDS011;59739;47.696;11.746;2023-05-10T10:42:51;0.52;;;0.40;;
71869;SDS011;59739;47.696;11.746;2023-05-10T10:45:19;0.40;;;0.20;;
71869;SDS011;59739;47.696;11.746;2023-05-10T10:47:46;1.05;;;0.30;;
71869;SDS011;59739;47.696;11.746;2023-05-10T10:50:12;0.60;;;0.50;;
71869;SDS011;59739;47.696;11.746;2023-05-10T10:52:41;0.65;;;0.40;;
71869;SDS011;59739;47.696;11.746;2023-05-10T10:55:13;0.30;;;0.30;;
71869;SDS011;59739;47.696;11.746;2023-05-10T11:00:32;0.35;;;0.28;;
71869;SDS011;59739;47.696;11.746;2023-05-10T11:05:49;0.50;;;0.45;;
71869;SDS011;59739;47.696;11.746;2023-05-10T11:08:27;0.88;;;0.40;;
71869;SDS011;59739;47.696;11.746;2023-05-10T11:13:31;0.20;;;0.20;;
71869;SDS011;59739;47.696;11.746;2023-05-10T11:16:17;0.90;;;0.40;;
71869;SDS011;59739;47.696;11.746;2023-05-10T11:21:19;0.30;;;0.30;;
71869;SDS011;59739;47.696;11.746;2023-05-10T11:23:52;0.43;;;0.43;;
71869;SDS011;59739;47.696;11.746;2023-05-10T11:26:24;0.70;;;0.50;;
71869;SDS011;59739;47.696;11.746;2023-05-10T11:28:58;0.90;;;0.75;;
71869;SDS011;59739;47.696;11.746;2023-05-10T11:31:26;0.93;;;0.63;;
71869;SDS011;59739;47.696;11.746;2023-05-10T11:33:56;1.17;;;0.43;;
71869;SDS011;59739;47.696;11.746;2023-05-10T11:36:28;0.50;;;0.37;;
71869;SDS011;59739;47.696;11.746;2023-05-10T11:39:01;0.98;;;0.30;;
71869;SDS011;59739;47.696;11.746;2023-05-10T11:41:29;0.20;;;0.20;;
71869;SDS011;59739;47.696;11.746;2023-05-10T11:43:56;0.30;;;0.28;;
71869;SDS011;59739;47.696;11.746;2023-05-10T11:46:24;0.82;;;0.20;;
71869;SDS011;59739;47.696;11.746;2023-05-10T11:49:01;0.20;;;0.20;;
71869;SDS011;59739;47.696;11.746;2023-05-10T11:51:29;0.30;;;0.20;;
71869;SDS011;59739;47.696;11.746;2023-05-10T11:53:57;1.45;;;0.30;;
71869;SDS011;59739;47.696;11.746;2023-05-10T11:56:23;0.32;;;0.30;;
71869;SDS011;59739;47.696;11.746;2023-05-10T11:58:53;0.25;;;0.25;;
71869;SDS011;59739;47.696;11.746;2023-05-10T12:01:21;0.80;;;0.30;;
71869;SDS011;59739;47.696;11.746;2023-05-10T12:03:49;0.45;;;0.30;;
71869;SDS011;59739;47.696;11.746;2023-05-10T12:06:18;0.38;;;0.30;;
71869;SDS011;59739;47.696;11.746;2023-05-10T12:08:45;0.40;;;0.30;;
71869;SDS011;59739;47.696;11.746;2023-05-10T12:11:13;0.65;;;0.30;;
71869;SDS011;59739;47.696;11.746;2023-05-10T12:13:41;0.55;;;0.40;;
71869;SDS011;59739;47.696;11.746;2023-05-10T12:16:18;1.58;;;0.57;;
71869;SDS011;59739;47.696;11.746;2023-05-10T12:18:51;0.90;;;0.32;;
71869;SDS011;59739;47.696;11.746;2023-05-10T12:21:21;0.55;;;0.30;;
71869;SDS011;59739;47.696;11.746;2023-05-10T12:23:52;0.40;;;0.40;;
71869;SDS011;59739;47.696;11.746;2023-05-10T12:26:27;0.77;;;0.30;;
71869;SDS011;59739;47.696;11.746;2023-05-10T12:28:54;0.57;;;0.40;;
71869;SDS011;59739;47.696;11.746;2023-05-10T12:31:52;0.52;;;0.40;;
71869;SDS011;59739;47.696;11.746;2023-05-10T12:34:24;0.30;;;0.30;;
71869;SDS011;59739;47.696;11.746;2023-05-10T12:37:01;0.60;;;0.40;;
71869;SDS011;59739;47.696;11.746;2023-05-10T12:39:41;1.77;;;0.40;;
71869;SDS011;59739;47.696;11.746;2023-05-10T12:42:09;0.47;;;0.38;;
71869;SDS011;59739;47.696;11.746;2023-05-10T12:44:35;0.47;;;0.40;;
71869;SDS011;59739;47.696;11.746;2023-05-10T12:47:01;0.38;;;0.38;;
71869;SDS011;59739;47.696;11.746;2023-05-10T12:49:27;0.70;;;0.40;;
71869;SDS011;59739;47.696;11.746;2023-05-10T12:51:53;0.30;;;0.30;;
71869;SDS011;59739;47.696;11.746;2023-05-10T12:54:19;0.55;;;0.30;;
71869;SDS011;59739;47.696;11.746;2023-05-10T12:56:45;1.45;;;0.40;;
71869;SDS011;59739;47.696;11.746;2023-05-10T12:59:11;0.65;;;0.50;;
71869;SDS011;59739;47.696;11.746;2023-05-10T13:01:37;2.22;;;0.50;;
71869;SDS011;59739;47.696;11.746;2023-05-10T13:04:03;0.60;;;0.50;;
71869;SDS011;59739;47.696;11.746;2023-05-10T13:06:29;1.02;;;0.40;;
71869;SDS011;59739;47.696;11.746;2023-05-10T13:08:55;1.35;;;0.40;;
71869;SDS011;59739;47.696;11.746;2023-05-10T13:11:22;0.50;;;0.40;;
71869;SDS011;59739;47.696;11.746;2023-05-10T13:13:48;1.40;;;0.30;;
71869;SDS011;59739;47.696;11.746;2023-05-10T13:16:14;0.30;;;0.30;;
71869;SDS011;59739;47.696;11.746;2023-05-10T13:18:41;0.70;;;0.43;;
71869;SDS011;59739;47.696;11.746;2023-05-10T13:21:06;0.30;;;0.30;;
71869;SDS011;59739;47.696;11.746;2023-05-10T13:23:33;0.52;;;0.30;;
71869;SDS011;59739;47.696;11.746;2023-05-10T13:25:59;0.75;;;0.30;;
71869;SDS011;59739;47.696;11.746;2023-05-10T13:28:25;0.32;;;0.30;;
71869;SDS011;59739;47.696;11.746;2023-05-10T13:30:51;1.50;;;0.50;;
71869;SDS011;59739;47.696;11.746;2023-05-10T13:33:17;0.85;;;0.45;;
71869;SDS011;59739;47.696;11.746;2023-05-10T13:35:43;1.23;;;0.55;;
71869;SDS011;59739;47.696;11.746;2023-05-10T13:38:10;0.40;;;0.30;;
71869;SDS011;59739;47.696;11.746;2023-05-10T13:40:36;0.45;;;0.40;;
71869;SDS011;59739;47.696;11.746;2023-05-10T13:43:02;0.70;;;0.40;;
71869;SDS011;59739;47.696;11.746;2023-05-10T13:45:28;1.42;;;0.82;;
71869;SDS011;59739;47.696;11.746;2023-05-10T13:47:54;0.35;;;0.32;;
71869;SDS011;59739;47.696;11.746;2023-05-10T13:50:20;0.47;;;0.40;;
71869;SDS011;59739;47.696;11.746;2023-05-10T13:52:46;0.73;;;0.38;;
71869;SDS011;59739;47.696;11.746;2023-05-10T13:55:12;1.70;;;0.50;;
71869;SDS011;59739;47.696;11.746;2023-05-10T13:57:38;0.68;;;0.60;;
71869;SDS011;59739;47.696;11.746;2023-05-10T14:00:05;1.02;;;0.57;;
71869;SDS011;59739;47.696;11.746;2023-05-10T14:02:33;0.45;;;0.40;;
71869;SDS011;59739;47.696;11.746;2023-05-10T14:04:59;0.88;;;0.47;;
71869;SDS011;59739;47.696;11.746;2023-05-10T14:07:25;1.65;;;0.60;;
71869;SDS011;59739;47.696;11.746;2023-05-10T14:09:51;1.48;;;0.70;;
71869;SDS011;59739;47.696;11.746;2023-05-10T14:12:20;2.00;;;0.77;;
71869;SDS011;59739;47.696;11.746;2023-05-10T14:14:47;1.70;;;0.68;;
71869;SDS011;59739;47.696;11.746;2023-05-10T14:17:13;5.07;;;3.30;;
71869;SDS011;59739;47.696;11.746;2023-05-10T14:19:42;4.32;;;3.40;;
71869;SDS011;59739;47.696;11.746;2023-05-10T14:22:08;3.70;;;2.50;;
71869;SDS011;59739;47.696;11.746;2023-05-10T14:24:34;3.47;;;2.10;;
71869;SDS011;59739;47.696;11.746;2023-05-10T14:27:00;2.00;;;1.38;;
71869;SDS011;59739;47.696;11.746;2023-05-10T14:29:26;0.63;;;0.50;;
71869;SDS011;59739;47.696;11.746;2023-05-10T14:31:52;0.30;;;0.30;;
71869;SDS011;59739;47.696;11.746;2023-05-10T14:34:18;0.57;;;0.40;;
71869;SDS011;59739;47.696;11.746;2023-05-10T14:36:45;1.40;;;0.35;;
71869;SDS011;59739;47.696;11.746;2023-05-10T14:39:11;0.40;;;0.40;;
71869;SDS011;59739;47.696;11.746;2023-05-10T14:41:38;0.50;;;0.30;;
71869;SDS011;59739;47.696;11.746;2023-05-10T14:44:07;1.67;;;0.70;;
71869;SDS011;59739;47.696;11.746;2023-05-10T14:46:34;0.85;;;0.25;;
71869;SDS011;59739;47.696;11.746;2023-05-10T14:49:00;0.98;;;0.40;;
71869;SDS011;59739;47.696;11.746;2023-05-10T14:51:26;1.55;;;0.52;;
71869;SDS011;59739;47.696;11.746;2023-05-10T14:53:52;1.63;;;0.73;;
71869;SDS011;59739;47.696;11.746;2023-05-10T14:56:21;2.17;;;0.40;;
71869;SDS011;59739;47.696;11.746;2023-05-10T14:58:52;0.75;;;0.50;;
71869;SDS011;59739;47.696;11.746;2023-05-10T15:01:18;1.38;;;0.82;;
71869;SDS011;59739;47.696;11.746;2023-05-10T15:03:44;1.70;;;0.43;;
71869;SDS011;59739;47.696;11.746;2023-05-10T15:06:10;0.43;;;0.40;;
71869;SDS011;59739;47.696;11.746;2023-05-10T15:08:38;0.93;;;0.50;;
71869;SDS011;59739;47.696;11.746;2023-05-10T15:11:04;1.20;;;0.50;;